Blue Island, Illinois
Current Conditions -  °F | °C
As of 8:53 PM on Thursday 18 Dec 2014 (Local Time) from KMDW Reporting Station
Overcast Overcast  
Wind Chill: 24°   Ceiling: 3200
Heat Index: 30°   Visibility: 10mi
Dew Point: 20°   Wind: 6mph
Humidity: 66%   Direction: 300°WNW
Pressure: 30.25"   Gusts: NA
Location:  41.66°N, 87.68°W
Report Text: KMDW 190253Z 30005KT 10SM OVC032 M01/M07 A3025 RMK AO2 SLP258 T10111067 50001
Loading
Personal Weather Stations






























Interactive Weather Map New forecast layout! Learn more

10-Day Weather Forecast

Advertisements
Track Severe Weather on mobile